アクトベ の空港の天気 - METARとTAF

アクトベ空港 ( UATT / AKX ) - カザフスタン アクトベ
飛行場実況気象(Metar)
観測時間11/21 16:30 ORAT (11/21 11:30 UTC)
風向・風速北北東 2m/s
視程10km以上
天気現象
なし
気温-12℃
湿度61%
気圧1043hPa
METARUATT 211130Z 02002MPS CAVOK M12/M18 Q1043 R31/910255 NOSIG RMK QFE762/1016
過去の天気等 Google飛行場航空写真 Wunderground天気予報

過去48時間のMETAR

飛行場予報(TAF)
発表時間: 11/21 16:00 ORAT (11/21 11:00 UTC)
予報対象時間: 21日17時 ORAT ~ 22日17時 ORAT
風向・風速北 3m/s
視程10km以上
全天の4割程度の雲 雲底高度 1010m
21日20時 ORAT から
風向・風速西北西 3m/s
視程3100m
天気現象もや
全天の8割程度の雲 雲底高度 340m
TAF UATT 211100Z 2112/2212 36003MPS 9999 SCT033 TXM08/2211Z TNM17/2203Z
FM211500 30003MPS 3100 BR BKN011